sensor_id;sensor_type;location;lat;lon;timestamp;pressure;altitude;pressure_sealevel;temperature;humidity
50636;BME280;36598;46.054;11.130;2022-12-07T00:01:36;99138.88;;;2.87;73.81
50636;BME280;36598;46.054;11.130;2022-12-07T00:04:03;99137.13;;;2.98;73.33
50636;BME280;36598;46.054;11.130;2022-12-07T00:06:33;99134.22;;;3.10;72.67
50636;BME280;36598;46.054;11.130;2022-12-07T00:08:58;99134.31;;;3.17;72.20
50636;BME280;36598;46.054;11.130;2022-12-07T00:11:24;99139.44;;;2.96;72.57
50636;BME280;36598;46.054;11.130;2022-12-07T00:13:53;99147.22;;;2.94;72.85
50636;BME280;36598;46.054;11.130;2022-12-07T00:16:19;99138.56;;;2.69;73.74
50636;BME280;36598;46.054;11.130;2022-12-07T00:18:45;99133.84;;;2.89;72.72
50636;BME280;36598;46.054;11.130;2022-12-07T00:21:18;99129.19;;;2.66;73.64
50636;BME280;36598;46.054;11.130;2022-12-07T00:23:43;99132.63;;;2.86;73.38
50636;BME280;36598;46.054;11.130;2022-12-07T00:26:10;99124.88;;;2.88;73.26
50636;BME280;36598;46.054;11.130;2022-12-07T00:28:36;99129.78;;;3.02;72.79
50636;BME280;36598;46.054;11.130;2022-12-07T00:31:04;99127.84;;;2.80;73.34
50636;BME280;36598;46.054;11.130;2022-12-07T00:33:29;99125.47;;;3.01;72.95
50636;BME280;36598;46.054;11.130;2022-12-07T00:35:55;99131.03;;;3.08;72.88
50636;BME280;36598;46.054;11.130;2022-12-07T00:38:21;99132.63;;;3.09;72.61
50636;BME280;36598;46.054;11.130;2022-12-07T00:40:53;99132.63;;;2.86;72.92
50636;BME280;36598;46.054;11.130;2022-12-07T00:43:18;99130.94;;;3.01;72.64
50636;BME280;36598;46.054;11.130;2022-12-07T00:45:44;99113.34;;;3.25;72.04
50636;BME280;36598;46.054;11.130;2022-12-07T00:48:09;99123.78;;;2.93;73.13
50636;BME280;36598;46.054;11.130;2022-12-07T00:50:34;99129.41;;;2.58;73.88
50636;BME280;36598;46.054;11.130;2022-12-07T00:52:59;99130.94;;;3.01;72.39
50636;BME280;36598;46.054;11.130;2022-12-07T00:55:25;99124.69;;;3.00;72.94
50636;BME280;36598;46.054;11.130;2022-12-07T00:57:50;99121.84;;;3.20;71.98
50636;BME280;36598;46.054;11.130;2022-12-07T01:00:15;99135.91;;;3.18;72.13
50636;BME280;36598;46.054;11.130;2022-12-07T01:02:41;99126.56;;;2.73;72.95
50636;BME280;36598;46.054;11.130;2022-12-07T01:05:06;99135.97;;;2.99;72.76
50636;BME280;36598;46.054;11.130;2022-12-07T01:07:31;99122.56;;;3.17;72.52
50636;BME280;36598;46.054;11.130;2022-12-07T01:09:57;99132.19;;;3.07;72.08
50636;BME280;36598;46.054;11.130;2022-12-07T01:12:22;99138.75;;;3.25;71.83
50636;BME280;36598;46.054;11.130;2022-12-07T01:14:47;99130.91;;;3.24;71.58
50636;BME280;36598;46.054;11.130;2022-12-07T01:17:13;99133.50;;;3.17;71.96
50636;BME280;36598;46.054;11.130;2022-12-07T01:19:38;99130.88;;;2.97;72.38
50636;BME280;36598;46.054;11.130;2022-12-07T01:22:03;99127.16;;;2.86;72.90
50636;BME280;36598;46.054;11.130;2022-12-07T01:24:28;99126.50;;;2.70;73.75
50636;BME280;36598;46.054;11.130;2022-12-07T01:26:54;99127.78;;;2.34;74.30
50636;BME280;36598;46.054;11.130;2022-12-07T01:29:19;99124.09;;;2.88;72.85
50636;BME280;36598;46.054;11.130;2022-12-07T01:31:44;99122.19;;;2.92;73.22
50636;BME280;36598;46.054;11.130;2022-12-07T01:34:09;99117.84;;;2.87;72.66
50636;BME280;36598;46.054;11.130;2022-12-07T01:36:35;99125.19;;;2.83;73.03
50636;BME280;36598;46.054;11.130;2022-12-07T01:39:03;99124.75;;;2.58;73.86
50636;BME280;36598;46.054;11.130;2022-12-07T01:41:29;99126.03;;;2.87;73.17
50636;BME280;36598;46.054;11.130;2022-12-07T01:44:07;99114.22;;;3.06;72.53
50636;BME280;36598;46.054;11.130;2022-12-07T01:46:33;99115.38;;;2.59;73.62
50636;BME280;36598;46.054;11.130;2022-12-07T01:48:58;99110.41;;;2.88;72.57
50636;BME280;36598;46.054;11.130;2022-12-07T01:51:24;99096.56;;;3.00;72.07
50636;BME280;36598;46.054;11.130;2022-12-07T01:53:50;99105.75;;;2.88;72.55
50636;BME280;36598;46.054;11.130;2022-12-07T01:56:17;99100.94;;;2.82;72.65
50636;BME280;36598;46.054;11.130;2022-12-07T01:58:43;99094.25;;;2.56;73.31
50636;BME280;36598;46.054;11.130;2022-12-07T02:01:09;99093.50;;;2.79;72.71
50636;BME280;36598;46.054;11.130;2022-12-07T02:03:38;99089.78;;;2.67;73.27
50636;BME280;36598;46.054;11.130;2022-12-07T02:06:04;99094.56;;;2.51;73.41
50636;BME280;36598;46.054;11.130;2022-12-07T02:08:30;99086.97;;;2.41;73.74
50636;BME280;36598;46.054;11.130;2022-12-07T02:10:55;99094.25;;;2.56;73.65
50636;BME280;36598;46.054;11.130;2022-12-07T02:13:25;99094.31;;;2.37;74.45
50636;BME280;36598;46.054;11.130;2022-12-07T02:18:42;99084.34;;;2.48;73.21
50636;BME280;36598;46.054;11.130;2022-12-07T02:21:11;99094.16;;;2.72;72.31
50636;BME280;36598;46.054;11.130;2022-12-07T02:23:41;99095.25;;;2.67;72.53
50636;BME280;36598;46.054;11.130;2022-12-07T02:31:18;99098.75;;;2.68;72.66
50636;BME280;36598;46.054;11.130;2022-12-07T02:33:45;99085.34;;;2.59;72.93
50636;BME280;36598;46.054;11.130;2022-12-07T02:38:58;99087.09;;;2.71;72.24
50636;BME280;36598;46.054;11.130;2022-12-07T02:41:27;99089.91;;;2.74;72.10
50636;BME280;36598;46.054;11.130;2022-12-07T02:43:55;99092.97;;;2.27;73.86
50636;BME280;36598;46.054;11.130;2022-12-07T02:46:23;99095.16;;;2.64;73.01
50636;BME280;36598;46.054;11.130;2022-12-07T02:48:49;99095.75;;;2.31;73.35
50636;BME280;36598;46.054;11.130;2022-12-07T02:51:17;99086.72;;;1.88;75.18
50636;BME280;36598;46.054;11.130;2022-12-07T02:53:43;99086.88;;;2.14;75.26
50636;BME280;36598;46.054;11.130;2022-12-07T02:56:15;99078.78;;;2.41;74.13
50636;BME280;36598;46.054;11.130;2022-12-07T03:01:53;99079.94;;;1.97;75.98
50636;BME280;36598;46.054;11.130;2022-12-07T03:04:18;99080.66;;;2.37;74.46
50636;BME280;36598;46.054;11.130;2022-12-07T03:06:50;99084.31;;;2.44;74.29
50636;BME280;36598;46.054;11.130;2022-12-07T03:09:20;99073.91;;;2.31;73.86
50636;BME280;36598;46.054;11.130;2022-12-07T03:11:48;99076.78;;;2.38;73.82
50636;BME280;36598;46.054;11.130;2022-12-07T03:14:21;99078.69;;;2.14;75.15
50636;BME280;36598;46.054;11.130;2022-12-07T03:16:53;99082.59;;;2.36;74.07
50636;BME280;36598;46.054;11.130;2022-12-07T03:19:20;99074.66;;;2.08;75.00
50636;BME280;36598;46.054;11.130;2022-12-07T03:21:50;99083.06;;;2.19;73.90
50636;BME280;36598;46.054;11.130;2022-12-07T03:24:19;99084.78;;;2.08;75.10
50636;BME280;36598;46.054;11.130;2022-12-07T03:26:49;99085.50;;;2.24;74.21
50636;BME280;36598;46.054;11.130;2022-12-07T03:29:24;99078.38;;;2.19;75.11
50636;BME280;36598;46.054;11.130;2022-12-07T03:31:52;99074.50;;;2.20;74.70
50636;BME280;36598;46.054;11.130;2022-12-07T03:37:14;99069.84;;;2.21;74.47
50636;BME280;36598;46.054;11.130;2022-12-07T03:39:46;99067.53;;;2.23;74.52
50636;BME280;36598;46.054;11.130;2022-12-07T03:42:15;99064.06;;;2.26;75.27
50636;BME280;36598;46.054;11.130;2022-12-07T03:44:41;99057.78;;;2.03;76.29
50636;BME280;36598;46.054;11.130;2022-12-07T03:47:15;99061.75;;;1.86;76.54
50636;BME280;36598;46.054;11.130;2022-12-07T03:49:47;99061.34;;;2.26;75.12
50636;BME280;36598;46.054;11.130;2022-12-07T03:57:11;99062.97;;;2.31;74.17
50636;BME280;36598;46.054;11.130;2022-12-07T03:59:37;99058.66;;;1.87;75.69
50636;BME280;36598;46.054;11.130;2022-12-07T04:02:04;99059.59;;;1.95;75.82
50636;BME280;36598;46.054;11.130;2022-12-07T04:04:30;99050.16;;;2.12;75.19
50636;BME280;36598;46.054;11.130;2022-12-07T04:06:55;99053.16;;;2.26;74.67
50636;BME280;36598;46.054;11.130;2022-12-07T04:09:20;99050.78;;;2.24;73.93
50636;BME280;36598;46.054;11.130;2022-12-07T04:11:46;99050.66;;;2.17;74.11
50636;BME280;36598;46.054;11.130;2022-12-07T04:14:11;99051.03;;;2.16;73.98
50636;BME280;36598;46.054;11.130;2022-12-07T04:19:11;99043.94;;;1.92;74.91
50636;BME280;36598;46.054;11.130;2022-12-07T04:21:36;99044.22;;;2.06;75.33
50636;BME280;36598;46.054;11.130;2022-12-07T04:24:02;99038.56;;;1.95;75.11
50636;BME280;36598;46.054;11.130;2022-12-07T04:26:27;99043.50;;;1.70;75.88
50636;BME280;36598;46.054;11.130;2022-12-07T04:28:52;99040.78;;;1.90;75.52
50636;BME280;36598;46.054;11.130;2022-12-07T04:31:18;99040.13;;;1.96;75.45
50636;BME280;36598;46.054;11.130;2022-12-07T04:33:43;99042.09;;;1.77;75.88
50636;BME280;36598;46.054;11.130;2022-12-07T04:36:08;99046.50;;;2.04;74.43
50636;BME280;36598;46.054;11.130;2022-12-07T04:38:34;99045.63;;;2.19;73.56
50636;BME280;36598;46.054;11.130;2022-12-07T04:41:03;99039.44;;;2.22;73.41
50636;BME280;36598;46.054;11.130;2022-12-07T04:43:29;99037.44;;;2.19;73.68
50636;BME280;36598;46.054;11.130;2022-12-07T04:45:54;99043.38;;;1.63;74.96
50636;BME280;36598;46.054;11.130;2022-12-07T04:48:19;99041.22;;;1.72;74.53
50636;BME280;36598;46.054;11.130;2022-12-07T04:50:47;99045.16;;;1.36;75.78
50636;BME280;36598;46.054;11.130;2022-12-07T04:53:12;99042.06;;;1.38;75.91
50636;BME280;36598;46.054;11.130;2022-12-07T04:55:38;99035.53;;;1.62;75.92
50636;BME280;36598;46.054;11.130;2022-12-07T04:58:03;99028.59;;;1.64;75.51
50636;BME280;36598;46.054;11.130;2022-12-07T05:03:00;99041.88;;;1.85;74.87
50636;BME280;36598;46.054;11.130;2022-12-07T05:05:26;99042.59;;;2.02;74.88
50636;BME280;36598;46.054;11.130;2022-12-07T05:07:51;99039.16;;;1.85;74.61
50636;BME280;36598;46.054;11.130;2022-12-07T05:10:17;99039.72;;;1.94;75.38
50636;BME280;36598;46.054;11.130;2022-12-07T05:12:42;99033.25;;;2.03;74.16
50636;BME280;36598;46.054;11.130;2022-12-07T05:15:07;99032.72;;;1.97;74.91
50636;BME280;36598;46.054;11.130;2022-12-07T05:17:33;99037.97;;;2.06;74.79
50636;BME280;36598;46.054;11.130;2022-12-07T05:19:58;99030.97;;;1.85;74.70
50636;BME280;36598;46.054;11.130;2022-12-07T05:22:24;99035.84;;;2.18;73.73
50636;BME280;36598;46.054;11.130;2022-12-07T05:24:53;99023.81;;;2.00;73.89
50636;BME280;36598;46.054;11.130;2022-12-07T05:27:18;99036.28;;;2.20;73.87
50636;BME280;36598;46.054;11.130;2022-12-07T05:29:43;99035.13;;;2.21;73.33
50636;BME280;36598;46.054;11.130;2022-12-07T05:32:09;99028.31;;;1.69;74.28
50636;BME280;36598;46.054;11.130;2022-12-07T05:34:34;99033.47;;;1.74;74.63
50636;BME280;36598;46.054;11.130;2022-12-07T05:36:59;99026.25;;;1.63;75.16
50636;BME280;36598;46.054;11.130;2022-12-07T05:39:25;99024.06;;;1.53;74.83
50636;BME280;36598;46.054;11.130;2022-12-07T05:41:50;99024.19;;;1.79;75.26
50636;BME280;36598;46.054;11.130;2022-12-07T05:44:33;99027.88;;;1.87;75.05
50636;BME280;36598;46.054;11.130;2022-12-07T05:46:59;99030.38;;;1.95;74.71
50636;BME280;36598;46.054;11.130;2022-12-07T05:49:24;99028.41;;;1.96;74.05
50636;BME280;36598;46.054;11.130;2022-12-07T05:51:49;99029.66;;;1.98;73.93
50636;BME280;36598;46.054;11.130;2022-12-07T05:54:15;99029.78;;;2.06;73.95
50636;BME280;36598;46.054;11.130;2022-12-07T05:56:40;99038.78;;;2.29;72.42
50636;BME280;36598;46.054;11.130;2022-12-07T05:59:05;99035.06;;;2.18;72.81
50636;BME280;36598;46.054;11.130;2022-12-07T06:01:59;99031.63;;;2.21;72.19
50636;BME280;36598;46.054;11.130;2022-12-07T06:04:26;99038.84;;;1.90;73.11
50636;BME280;36598;46.054;11.130;2022-12-07T06:06:51;99038.06;;;1.51;74.92
50636;BME280;36598;46.054;11.130;2022-12-07T06:09:17;99040.94;;;1.58;75.51
50636;BME280;36598;46.054;11.130;2022-12-07T06:11:43;99041.56;;;1.71;75.05
50636;BME280;36598;46.054;11.130;2022-12-07T06:14:27;99044.38;;;1.55;75.15
50636;BME280;36598;46.054;11.130;2022-12-07T06:16:52;99057.00;;;1.83;74.39
50636;BME280;36598;46.054;11.130;2022-12-07T06:19:17;99046.69;;;1.72;74.32
50636;BME280;36598;46.054;11.130;2022-12-07T06:21:42;99048.97;;;1.51;74.92
50636;BME280;36598;46.054;11.130;2022-12-07T06:24:09;99053.63;;;1.70;74.74
50636;BME280;36598;46.054;11.130;2022-12-07T06:26:35;99057.44;;;1.65;74.92
50636;BME280;36598;46.054;11.130;2022-12-07T06:29:01;99048.63;;;1.72;74.88
50636;BME280;36598;46.054;11.130;2022-12-07T06:31:26;99043.09;;;1.68;74.36
50636;BME280;36598;46.054;11.130;2022-12-07T06:33:51;99050.56;;;1.71;74.37
50636;BME280;36598;46.054;11.130;2022-12-07T06:36:21;99041.50;;;1.87;74.38
50636;BME280;36598;46.054;11.130;2022-12-07T06:38:46;99050.69;;;1.79;74.27
50636;BME280;36598;46.054;11.130;2022-12-07T06:41:12;99051.41;;;1.75;74.11
50636;BME280;36598;46.054;11.130;2022-12-07T06:43:37;99046.69;;;1.72;74.19
50636;BME280;36598;46.054;11.130;2022-12-07T06:46:03;99048.69;;;1.75;73.78
50636;BME280;36598;46.054;11.130;2022-12-07T06:48:28;99054.69;;;2.04;74.22
50636;BME280;36598;46.054;11.130;2022-12-07T06:50:53;99049.94;;;2.01;73.16
50636;BME280;36598;46.054;11.130;2022-12-07T06:53:19;99048.44;;;2.04;72.95
50636;BME280;36598;46.054;11.130;2022-12-07T06:55:44;99047.81;;;2.33;71.50
50636;BME280;36598;46.054;11.130;2022-12-07T06:58:09;99046.66;;;2.34;72.24
50636;BME280;36598;46.054;11.130;2022-12-07T07:00:35;99057.81;;;2.25;72.78
50636;BME280;36598;46.054;11.130;2022-12-07T07:03:00;99060.88;;;2.01;72.70
50636;BME280;36598;46.054;11.130;2022-12-07T07:05:25;99055.34;;;2.40;71.31
50636;BME280;36598;46.054;11.130;2022-12-07T07:07:51;99065.59;;;2.23;71.60
50636;BME280;36598;46.054;11.130;2022-12-07T07:10:16;99066.78;;;2.45;71.03
50636;BME280;36598;46.054;11.130;2022-12-07T07:12:41;99061.47;;;2.33;70.93
50636;BME280;36598;46.054;11.130;2022-12-07T07:15:07;99062.88;;;2.23;71.64
50636;BME280;36598;46.054;11.130;2022-12-07T07:17:32;99067.41;;;2.16;72.30
50636;BME280;36598;46.054;11.130;2022-12-07T07:19:57;99068.03;;;2.51;71.36
50636;BME280;36598;46.054;11.130;2022-12-07T07:22:23;99066.06;;;2.48;70.88
50636;BME280;36598;46.054;11.130;2022-12-07T07:24:48;99071.44;;;2.45;70.93
50636;BME280;36598;46.054;11.130;2022-12-07T07:27:13;99072.75;;;2.78;70.64
50636;BME280;36598;46.054;11.130;2022-12-07T07:29:39;99076.66;;;2.54;70.58
50636;BME280;36598;46.054;11.130;2022-12-07T07:32:04;99070.75;;;2.51;70.82
50636;BME280;36598;46.054;11.130;2022-12-07T07:34:29;99066.28;;;3.12;69.17
50636;BME280;36598;46.054;11.130;2022-12-07T07:36:55;99077.94;;;2.83;69.70
50636;BME280;36598;46.054;11.130;2022-12-07T07:39:20;99072.16;;;2.88;69.53
50636;BME280;36598;46.054;11.130;2022-12-07T07:41:46;99071.53;;;3.24;67.98
50636;BME280;36598;46.054;11.130;2022-12-07T07:44:11;99078.28;;;3.31;67.92
50636;BME280;36598;46.054;11.130;2022-12-07T07:46:36;99074.91;;;3.71;66.35
50636;BME280;36598;46.054;11.130;2022-12-07T07:49:02;99069.03;;;3.39;67.59
50636;BME280;36598;46.054;11.130;2022-12-07T07:51:27;99077.63;;;3.41;67.21
50636;BME280;36598;46.054;11.130;2022-12-07T07:53:52;99075.84;;;3.82;66.07
50636;BME280;36598;46.054;11.130;2022-12-07T07:56:17;99077.44;;;3.87;65.22
50636;BME280;36598;46.054;11.130;2022-12-07T07:58:43;99081.94;;;3.72;65.64
50636;BME280;36598;46.054;11.130;2022-12-07T08:01:08;99087.25;;;3.58;65.79
50636;BME280;36598;46.054;11.130;2022-12-07T08:03:34;99086.41;;;3.54;66.44
50636;BME280;36598;46.054;11.130;2022-12-07T08:05:59;99085.84;;;3.41;66.60
50636;BME280;36598;46.054;11.130;2022-12-07T08:08:25;99083.00;;;3.34;66.91
50636;BME280;36598;46.054;11.130;2022-12-07T08:10:53;99083.16;;;3.44;66.78
50636;BME280;36598;46.054;11.130;2022-12-07T08:13:18;99079.91;;;3.65;66.12
50636;BME280;36598;46.054;11.130;2022-12-07T08:15:45;99087.16;;;2.74;68.15
50636;BME280;36598;46.054;11.130;2022-12-07T08:18:11;99093.09;;;2.80;69.11
50636;BME280;36598;46.054;11.130;2022-12-07T08:20:37;99092.94;;;3.19;67.90
50636;BME280;36598;46.054;11.130;2022-12-07T08:23:02;99090.78;;;5.07;63.65
50636;BME280;36598;46.054;11.130;2022-12-07T08:25:28;99091.63;;;10.68;47.86
50636;BME280;36598;46.054;11.130;2022-12-07T08:27:53;99087.72;;;16.43;35.06
50636;BME280;36598;46.054;11.130;2022-12-07T08:30:19;99082.09;;;20.94;27.17
50636;BME280;36598;46.054;11.130;2022-12-07T08:32:45;99077.34;;;22.86;23.88
50636;BME280;36598;46.054;11.130;2022-12-07T08:35:11;99077.44;;;25.29;20.73
50636;BME280;36598;46.054;11.130;2022-12-07T08:37:36;99073.81;;;26.39;19.84
50636;BME280;36598;46.054;11.130;2022-12-07T08:40:02;99076.78;;;26.88;18.46
50636;BME280;36598;46.054;11.130;2022-12-07T08:42:27;99079.06;;;27.44;17.75
50636;BME280;36598;46.054;11.130;2022-12-07T08:44:55;99082.63;;;30.23;15.58
50636;BME280;36598;46.054;11.130;2022-12-07T08:47:20;99082.41;;;26.63;17.80
50636;BME280;36598;46.054;11.130;2022-12-07T08:49:46;99089.31;;;23.55;20.73
50636;BME280;36598;46.054;11.130;2022-12-07T08:52:13;99088.84;;;23.14;21.26
50636;BME280;36598;46.054;11.130;2022-12-07T08:54:38;99084.56;;;20.86;23.70
50636;BME280;36598;46.054;11.130;2022-12-07T08:57:05;99086.41;;;20.15;25.04
50636;BME280;36598;46.054;11.130;2022-12-07T08:59:31;99082.50;;;19.59;25.46
50636;BME280;36598;46.054;11.130;2022-12-07T09:01:58;99084.09;;;19.51;26.15
50636;BME280;36598;46.054;11.130;2022-12-07T09:04:23;99084.66;;;19.64;25.94
50636;BME280;36598;46.054;11.130;2022-12-07T09:06:48;99089.66;;;19.60;25.63
50636;BME280;36598;46.054;11.130;2022-12-07T09:09:14;99087.84;;;19.96;25.02
50636;BME280;36598;46.054;11.130;2022-12-07T09:11:39;99088.97;;;20.93;24.24
50636;BME280;36598;46.054;11.130;2022-12-07T09:14:05;99082.03;;;20.14;24.90
50636;BME280;36598;46.054;11.130;2022-12-07T09:16:30;99083.13;;;21.46;23.54
50636;BME280;36598;46.054;11.130;2022-12-07T09:18:56;99075.22;;;22.17;22.51
50636;BME280;36598;46.054;11.130;2022-12-07T09:21:21;99083.00;;;22.02;22.87
50636;BME280;36598;46.054;11.130;2022-12-07T09:23:46;99080.25;;;23.94;20.69
50636;BME280;36598;46.054;11.130;2022-12-07T09:26:11;99078.91;;;23.30;21.55
50636;BME280;36598;46.054;11.130;2022-12-07T09:28:37;99071.78;;;23.40;21.06
50636;BME280;36598;46.054;11.130;2022-12-07T09:31:03;99073.09;;;24.15;20.75
50636;BME280;36598;46.054;11.130;2022-12-07T09:33:28;99062.75;;;25.94;19.08
50636;BME280;36598;46.054;11.130;2022-12-07T09:35:53;99061.53;;;24.36;20.57
50636;BME280;36598;46.054;11.130;2022-12-07T09:38:19;99058.06;;;26.43;18.23
50636;BME280;36598;46.054;11.130;2022-12-07T09:40:45;99055.38;;;27.36;17.61
50636;BME280;36598;46.054;11.130;2022-12-07T09:43:14;99042.25;;;27.08;17.71
50636;BME280;36598;46.054;11.130;2022-12-07T09:45:40;99043.50;;;26.22;18.03
50636;BME280;36598;46.054;11.130;2022-12-07T09:48:10;99037.78;;;29.36;15.84
50636;BME280;36598;46.054;11.130;2022-12-07T09:50:41;99041.44;;;28.78;15.57
50636;BME280;36598;46.054;11.130;2022-12-07T09:53:12;99038.44;;;29.02;15.43
50636;BME280;36598;46.054;11.130;2022-12-07T09:55:39;99039.97;;;30.59;14.71
50636;BME280;36598;46.054;11.130;2022-12-07T09:58:06;99040.81;;;30.25;14.77
50636;BME280;36598;46.054;11.130;2022-12-07T10:00:31;99039.50;;;30.47;14.60
50636;BME280;36598;46.054;11.130;2022-12-07T10:02:57;99033.16;;;31.40;14.01
50636;BME280;36598;46.054;11.130;2022-12-07T10:05:25;99032.91;;;33.33;12.44
50636;BME280;36598;46.054;11.130;2022-12-07T10:07:52;99021.03;;;30.27;14.21
50636;BME280;36598;46.054;11.130;2022-12-07T10:10:18;99021.00;;;31.18;13.46
50636;BME280;36598;46.054;11.130;2022-12-07T10:12:56;99015.94;;;31.04;13.73
50636;BME280;36598;46.054;11.130;2022-12-07T10:15:21;99014.47;;;30.82;13.73
50636;BME280;36598;46.054;11.130;2022-12-07T10:17:48;99008.88;;;29.18;14.80
50636;BME280;36598;46.054;11.130;2022-12-07T10:20:15;99005.56;;;30.23;13.92
50636;BME280;36598;46.054;11.130;2022-12-07T10:23:00;99002.56;;;30.49;14.00
50636;BME280;36598;46.054;11.130;2022-12-07T10:25:27;99003.56;;;32.94;12.59
50636;BME280;36598;46.054;11.130;2022-12-07T10:30:24;98994.69;;;33.23;11.86
50636;BME280;36598;46.054;11.130;2022-12-07T10:32:49;98988.16;;;34.18;11.91
50636;BME280;36598;46.054;11.130;2022-12-07T10:35:24;98985.47;;;31.79;12.90
50636;BME280;36598;46.054;11.130;2022-12-07T10:37:49;98981.81;;;31.71;13.17
50636;BME280;36598;46.054;11.130;2022-12-07T10:40:26;98980.56;;;32.02;12.46
50636;BME280;36598;46.054;11.130;2022-12-07T10:43:02;98977.78;;;32.40;12.57
50636;BME280;36598;46.054;11.130;2022-12-07T10:45:27;98972.56;;;33.08;11.87
50636;BME280;36598;46.054;11.130;2022-12-07T11:00:58;98949.72;;;30.77;13.25
50636;BME280;36598;46.054;11.130;2022-12-07T11:03:42;98944.88;;;31.88;12.92
50636;BME280;36598;46.054;11.130;2022-12-07T11:11:34;98926.31;;;31.14;13.19
50636;BME280;36598;46.054;11.130;2022-12-07T11:21:47;98907.88;;;32.36;12.28
50636;BME280;36598;46.054;11.130;2022-12-07T11:24:18;98903.69;;;32.14;12.23
50636;BME280;36598;46.054;11.130;2022-12-07T11:31:56;98886.31;;;30.78;13.68
50636;BME280;36598;46.054;11.130;2022-12-07T11:34:49;98883.41;;;29.79;14.48
50636;BME280;36598;46.054;11.130;2022-12-07T11:37:13;98878.41;;;28.37;15.40
50636;BME280;36598;46.054;11.130;2022-12-07T11:39:52;98872.50;;;28.75;15.42
50636;BME280;36598;46.054;11.130;2022-12-07T11:42:22;98865.47;;;29.03;14.87
50636;BME280;36598;46.054;11.130;2022-12-07T11:44:55;98870.13;;;29.27;14.79
50636;BME280;36598;46.054;11.130;2022-12-07T11:50:13;98867.91;;;24.70;18.74
50636;BME280;36598;46.054;11.130;2022-12-07T11:52:45;98855.50;;;24.85;18.58
50636;BME280;36598;46.054;11.130;2022-12-07T11:55:19;98862.50;;;21.44;21.65
50636;BME280;36598;46.054;11.130;2022-12-07T11:57:47;98865.47;;;22.24;21.32
50636;BME280;36598;46.054;11.130;2022-12-07T12:00:15;98862.91;;;20.64;23.21
50636;BME280;36598;46.054;11.130;2022-12-07T12:03:01;98863.59;;;19.89;24.38
50636;BME280;36598;46.054;11.130;2022-12-07T12:05:29;98854.50;;;19.35;24.84
50636;BME280;36598;46.054;11.130;2022-12-07T12:07:59;98858.53;;;19.04;25.42
50636;BME280;36598;46.054;11.130;2022-12-07T12:13:17;98853.97;;;17.26;28.15
50636;BME280;36598;46.054;11.130;2022-12-07T12:15:51;98852.47;;;15.49;30.85
50636;BME280;36598;46.054;11.130;2022-12-07T12:21:19;98845.41;;;15.57;31.54
50636;BME280;36598;46.054;11.130;2022-12-07T12:23:49;98844.72;;;16.06;30.86
50636;BME280;36598;46.054;11.130;2022-12-07T12:26:17;98836.38;;;15.22;32.24
50636;BME280;36598;46.054;11.130;2022-12-07T12:33:46;98833.06;;;15.14;32.76
50636;BME280;36598;46.054;11.130;2022-12-07T12:51:41;98830.25;;;12.79;36.55
50636;BME280;36598;46.054;11.130;2022-12-07T12:54:11;98822.78;;;13.18;36.31
50636;BME280;36598;46.054;11.130;2022-12-07T12:59:26;98810.00;;;13.62;35.76
50636;BME280;36598;46.054;11.130;2022-12-07T13:01:54;98807.41;;;14.06;35.30
50636;BME280;36598;46.054;11.130;2022-12-07T13:06:45;98798.28;;;13.93;34.46
50636;BME280;36598;46.054;11.130;2022-12-07T13:09:21;98792.94;;;13.86;35.26
50636;BME280;36598;46.054;11.130;2022-12-07T13:11:48;98793.75;;;13.48;35.54
50636;BME280;36598;46.054;11.130;2022-12-07T13:16:58;98783.75;;;13.38;35.91
50636;BME280;36598;46.054;11.130;2022-12-07T13:24:59;98787.63;;;13.40;35.43
50636;BME280;36598;46.054;11.130;2022-12-07T13:27:28;98780.63;;;13.36;35.30
50636;BME280;36598;46.054;11.130;2022-12-07T13:29:56;98782.34;;;13.04;36.07
50636;BME280;36598;46.054;11.130;2022-12-07T13:32:23;98781.03;;;13.21;36.35
50636;BME280;36598;46.054;11.130;2022-12-07T13:34:49;98782.50;;;13.26;36.95
50636;BME280;36598;46.054;11.130;2022-12-07T13:37:23;98784.31;;;13.33;36.47
50636;BME280;36598;46.054;11.130;2022-12-07T13:39:52;98775.41;;;13.38;36.48
50636;BME280;36598;46.054;11.130;2022-12-07T13:42:27;98778.41;;;13.31;36.44
50636;BME280;36598;46.054;11.130;2022-12-07T13:44:53;98777.31;;;12.99;36.36
50636;BME280;36598;46.054;11.130;2022-12-07T13:50:20;98776.88;;;12.59;37.34
50636;BME280;36598;46.054;11.130;2022-12-07T13:52:46;98781.69;;;12.42;38.48
50636;BME280;36598;46.054;11.130;2022-12-07T13:55:14;98771.63;;;12.48;37.61
50636;BME280;36598;46.054;11.130;2022-12-07T13:57:40;98773.06;;;12.23;38.05
50636;BME280;36598;46.054;11.130;2022-12-07T14:00:06;98769.78;;;11.79;39.04
50636;BME280;36598;46.054;11.130;2022-12-07T14:02:53;98771.16;;;12.20;38.38
50636;BME280;36598;46.054;11.130;2022-12-07T14:05:29;98774.44;;;12.32;39.11
50636;BME280;36598;46.054;11.130;2022-12-07T14:07:59;98780.00;;;11.99;39.01
50636;BME280;36598;46.054;11.130;2022-12-07T14:10:35;98770.13;;;11.49;39.76
50636;BME280;36598;46.054;11.130;2022-12-07T14:13:01;98763.34;;;10.58;41.27
50636;BME280;36598;46.054;11.130;2022-12-07T14:15:31;98770.38;;;10.42;41.78
50636;BME280;36598;46.054;11.130;2022-12-07T14:17:58;98776.25;;;10.21;42.68
50636;BME280;36598;46.054;11.130;2022-12-07T14:22:58;98783.00;;;9.96;43.77
50636;BME280;36598;46.054;11.130;2022-12-07T14:25:24;98777.88;;;9.71;44.07
50636;BME280;36598;46.054;11.130;2022-12-07T14:30:21;98782.31;;;9.65;43.89
50636;BME280;36598;46.054;11.130;2022-12-07T14:32:48;98783.53;;;9.37;45.72
50636;BME280;36598;46.054;11.130;2022-12-07T14:35:16;98783.91;;;9.39;44.95
50636;BME280;36598;46.054;11.130;2022-12-07T14:37:43;98784.47;;;9.54;45.16
50636;BME280;36598;46.054;11.130;2022-12-07T14:40:12;98788.94;;;9.44;45.44
50636;BME280;36598;46.054;11.130;2022-12-07T14:42:37;98784.38;;;9.34;45.16
50636;BME280;36598;46.054;11.130;2022-12-07T14:45:05;98795.72;;;9.40;45.31
50636;BME280;36598;46.054;11.130;2022-12-07T14:47:30;98792.75;;;9.27;45.62
50636;BME280;36598;46.054;11.130;2022-12-07T14:49:56;98807.06;;;8.88;46.38